sensor_id;sensor_type;location;lat;lon;timestamp;pressure;altitude;pressure_sealevel;temperature;humidity
34205;BME280;20471;49.680;20.074;2024-01-15T06:58:20;95138.27;;;-0.68;67.69
34205;BME280;20471;49.680;20.074;2024-01-15T07:00:48;95142.39;;;-0.68;67.56
34205;BME280;20471;49.680;20.074;2024-01-15T07:03:16;95138.48;;;-0.71;67.46
34205;BME280;20471;49.680;20.074;2024-01-15T07:05:44;95142.73;;;-0.72;67.56
34205;BME280;20471;49.680;20.074;2024-01-15T07:08:11;95143.39;;;-0.75;67.61
34205;BME280;20471;49.680;20.074;2024-01-15T07:10:39;95143.95;;;-0.75;67.68
34205;BME280;20471;49.680;20.074;2024-01-15T07:13:07;95144.94;;;-0.76;67.75
34205;BME280;20471;49.680;20.074;2024-01-15T07:15:35;95141.27;;;-0.76;67.71
34205;BME280;20471;49.680;20.074;2024-01-15T07:18:02;95142.67;;;-0.76;67.74
34205;BME280;20471;49.680;20.074;2024-01-15T07:20:30;95145.43;;;-0.74;67.78
34205;BME280;20471;49.680;20.074;2024-01-15T07:22:58;95146.70;;;-0.73;67.66
34205;BME280;20471;49.680;20.074;2024-01-15T07:25:26;95141.10;;;-0.72;67.77
34205;BME280;20471;49.680;20.074;2024-01-15T07:27:53;95142.52;;;-0.68;67.85
34205;BME280;20471;49.680;20.074;2024-01-15T07:30:50;95143.80;;;-0.64;67.79
34205;BME280;20471;49.680;20.074;2024-01-15T07:33:18;95147.04;;;-0.59;67.97
34205;BME280;20471;49.680;20.074;2024-01-15T07:35:46;95148.86;;;-0.54;67.91
34205;BME280;20471;49.680;20.074;2024-01-15T07:38:14;95155.22;;;-0.53;67.56
34205;BME280;20471;49.680;20.074;2024-01-15T07:40:42;95156.05;;;-0.52;67.71
34205;BME280;20471;49.680;20.074;2024-01-15T07:43:09;95158.69;;;-0.52;67.54
34205;BME280;20471;49.680;20.074;2024-01-15T07:45:37;95159.95;;;-0.51;67.75
34205;BME280;20471;49.680;20.074;2024-01-15T07:48:05;95163.63;;;-0.48;67.79
34205;BME280;20471;49.680;20.074;2024-01-15T07:50:33;95164.13;;;-0.47;67.65
34205;BME280;20471;49.680;20.074;2024-01-15T07:53:01;95167.23;;;-0.46;67.48
34205;BME280;20471;49.680;20.074;2024-01-15T07:55:29;95171.84;;;-0.45;67.53
34205;BME280;20471;49.680;20.074;2024-01-15T07:57:57;95170.50;;;-0.44;67.41
34205;BME280;20471;49.680;20.074;2024-01-15T08:00:25;95172.98;;;-0.44;67.52
34205;BME280;20471;49.680;20.074;2024-01-15T08:02:53;95180.79;;;-0.42;67.60
34205;BME280;20471;49.680;20.074;2024-01-15T08:05:21;95185.25;;;-0.39;67.36
34205;BME280;20471;49.680;20.074;2024-01-15T08:07:49;95179.46;;;-0.37;67.34
34205;BME280;20471;49.680;20.074;2024-01-15T08:10:16;95180.20;;;-0.34;67.32
34205;BME280;20471;49.680;20.074;2024-01-15T08:12:44;95178.34;;;-0.31;67.18
34205;BME280;20471;49.680;20.074;2024-01-15T08:15:12;95181.70;;;-0.28;67.13
34205;BME280;20471;49.680;20.074;2024-01-15T08:17:39;95180.30;;;-0.25;67.23
34205;BME280;20471;49.680;20.074;2024-01-15T08:20:07;95180.85;;;-0.22;67.22
34205;BME280;20471;49.680;20.074;2024-01-15T08:22:36;95182.90;;;-0.20;67.14
34205;BME280;20471;49.680;20.074;2024-01-15T08:25:06;95174.23;;;-0.18;67.22
34205;BME280;20471;49.680;20.074;2024-01-15T08:27:33;95175.30;;;-0.16;67.18
34205;BME280;20471;49.680;20.074;2024-01-15T08:30:01;95174.98;;;-0.13;67.19
34205;BME280;20471;49.680;20.074;2024-01-15T08:32:31;95169.42;;;-0.11;67.28
34205;BME280;20471;49.680;20.074;2024-01-15T08:34:58;95167.80;;;-0.08;67.31
34205;BME280;20471;49.680;20.074;2024-01-15T08:37:26;95172.10;;;-0.06;67.14
34205;BME280;20471;49.680;20.074;2024-01-15T08:39:54;95170.02;;;-0.05;67.10
34205;BME280;20471;49.680;20.074;2024-01-15T08:42:22;95166.58;;;-0.03;67.18
34205;BME280;20471;49.680;20.074;2024-01-15T08:44:50;95162.58;;;-0.02;67.13
34205;BME280;20471;49.680;20.074;2024-01-15T08:47:18;95162.01;;;-0.03;67.05
34205;BME280;20471;49.680;20.074;2024-01-15T08:49:46;95166.45;;;-0.01;67.35
34205;BME280;20471;49.680;20.074;2024-01-15T08:52:14;95160.98;;;0.03;67.28
34205;BME280;20471;49.680;20.074;2024-01-15T08:54:42;95159.27;;;0.05;67.37
34205;BME280;20471;49.680;20.074;2024-01-15T08:57:09;95155.30;;;0.09;67.41
34205;BME280;20471;49.680;20.074;2024-01-15T08:59:38;95157.21;;;0.12;67.20
34205;BME280;20471;49.680;20.074;2024-01-15T09:02:05;95159.73;;;0.11;66.85
34205;BME280;20471;49.680;20.074;2024-01-15T09:04:33;95164.68;;;0.11;66.74
34205;BME280;20471;49.680;20.074;2024-01-15T09:07:01;95177.28;;;0.12;66.71
34205;BME280;20471;49.680;20.074;2024-01-15T09:09:29;95180.67;;;0.15;66.77
34205;BME280;20471;49.680;20.074;2024-01-15T09:11:57;95187.18;;;0.19;66.78
34205;BME280;20471;49.680;20.074;2024-01-15T09:14:25;95191.27;;;0.23;66.68
34205;BME280;20471;49.680;20.074;2024-01-15T09:16:53;95188.66;;;0.26;66.47
34205;BME280;20471;49.680;20.074;2024-01-15T09:19:21;95189.20;;;0.29;66.41
34205;BME280;20471;49.680;20.074;2024-01-15T09:21:48;95185.82;;;0.34;66.32
34205;BME280;20471;49.680;20.074;2024-01-15T09:24:16;95188.27;;;0.39;66.37
34205;BME280;20471;49.680;20.074;2024-01-15T09:26:44;95198.29;;;0.44;65.96
34205;BME280;20471;49.680;20.074;2024-01-15T09:29:12;95199.98;;;0.47;65.80
